createdAt,value
2022-08-05T00:01:35.677Z,53.19
2022-08-05T00:04:08.316Z,53.11
2022-08-05T00:06:37.993Z,53.27
2022-08-05T00:09:12.690Z,53.46
2022-08-05T00:11:47.394Z,53.56
2022-08-05T00:14:17.431Z,53.65
2022-08-05T00:16:52.856Z,53.73
2022-08-05T00:19:22.554Z,53.91
2022-08-05T00:21:52.128Z,54.16
2022-08-05T00:24:31.116Z,54.13
2022-08-05T00:26:59.653Z,54.42
2022-08-05T00:29:38.166Z,54.45
2022-08-05T00:32:11.008Z,54.59
2022-08-05T00:34:55.706Z,54.68
2022-08-05T00:37:51.343Z,54.75
2022-08-05T00:40:27.316Z,55.01
2022-08-05T00:42:58.470Z,55.11
2022-08-05T00:45:38.867Z,55.15
2022-08-05T00:48:12.490Z,55.24
2022-08-05T00:50:41.379Z,55.35
2022-08-05T00:53:44.962Z,55.52
2022-08-05T00:56:01.965Z,55.53
2022-08-05T00:58:29.974Z,55.64
2022-08-05T01:00:58.115Z,55.70
2022-08-05T01:03:31.114Z,55.68
2022-08-05T01:06:01.637Z,55.81
2022-08-05T01:08:42.775Z,55.94
2022-08-05T01:11:22.222Z,55.85
2022-08-05T01:14:03.918Z,55.71
2022-08-05T01:16:44.124Z,56.12
2022-08-05T01:19:46.238Z,56.19
2022-08-05T01:22:27.929Z,56.32
2022-08-05T01:25:40.935Z,56.43
2022-08-05T01:28:25.719Z,56.84
2022-08-05T01:30:58.306Z,57.33
2022-08-05T01:33:35.515Z,57.19
2022-08-05T01:36:12.914Z,57.05
2022-08-05T01:38:48.295Z,57.14
2022-08-05T01:41:22.533Z,57.29
2022-08-05T01:43:57.629Z,57.19
2022-08-05T01:46:42.624Z,57.00
2022-08-05T01:49:23.675Z,57.01
2022-08-05T01:51:56.509Z,57.21
2022-08-05T01:54:31.732Z,57.06
2022-08-05T01:58:12.356Z,57.14
2022-08-05T01:59:54.217Z,56.97
2022-08-05T02:02:26.304Z,56.96
2022-08-05T02:05:01.761Z,56.77
2022-08-05T02:07:32.511Z,56.81
2022-08-05T02:10:02.288Z,56.82
2022-08-05T02:12:38.476Z,56.61
2022-08-05T02:15:13.902Z,56.54
2022-08-05T02:18:31.686Z,56.58
2022-08-05T02:20:47.366Z,56.55
2022-08-05T02:23:21.715Z,56.79
2022-08-05T02:25:52.270Z,56.61
2022-08-05T02:28:29.003Z,56.50
2022-08-05T02:31:04.316Z,56.68
2022-08-05T02:33:38.905Z,56.78
2022-08-05T02:36:13.590Z,56.71
2022-08-05T02:38:53.089Z,56.81
2022-08-05T02:41:28.691Z,56.91
2022-08-05T02:44:12.238Z,56.86
2022-08-05T02:46:58.554Z,56.73
2022-08-05T02:49:35.778Z,56.74
2022-08-05T02:52:07.575Z,56.74
2022-08-05T02:54:41.328Z,56.81
2022-08-05T02:58:11.823Z,56.81
2022-08-05T03:00:02.447Z,56.89
2022-08-05T03:02:37.822Z,56.70
2022-08-05T03:05:10.172Z,56.73
2022-08-05T03:08:00.736Z,56.83
2022-08-05T03:10:28.980Z,56.92
2022-08-05T03:15:24.758Z,57.00
2022-08-05T03:17:57.703Z,56.99
2022-08-05T03:20:26.458Z,57.03
2022-08-05T03:22:57.605Z,57.27
2022-08-05T03:26:04.039Z,57.58
2022-08-05T03:28:18.455Z,57.17
2022-08-05T03:30:49.358Z,57.10
2022-08-05T03:33:19.659Z,57.03
2022-08-05T03:35:49.927Z,56.99
2022-08-05T03:38:32.759Z,57.13
2022-08-05T03:41:08.490Z,57.19
2022-08-05T03:44:09.948Z,57.24
2022-08-05T03:46:30.010Z,57.40
2022-08-05T03:49:02.367Z,57.44
2022-08-05T03:52:37.529Z,57.36
2022-08-05T03:55:50.797Z,57.25
2022-08-05T03:57:41.306Z,57.17
2022-08-05T04:00:12.577Z,57.19
2022-08-05T04:02:58.154Z,57.16
2022-08-05T04:05:33.553Z,57.09
2022-08-05T04:08:05.667Z,57.20
2022-08-05T04:10:44.931Z,57.32
2022-08-05T04:13:13.375Z,57.25
2022-08-05T04:16:02.889Z,57.30
2022-08-05T04:18:30.516Z,57.29
2022-08-05T04:21:00.300Z,57.35
2022-08-05T04:24:05.906Z,57.30
2022-08-05T04:26:18.954Z,57.28
2022-08-05T04:28:51.916Z,57.42
2022-08-05T04:31:20.679Z,57.37
2022-08-05T04:34:17.927Z,57.24
2022-08-05T04:36:46.590Z,57.19
2022-08-05T04:39:18.990Z,57.22
2022-08-05T04:41:48.110Z,57.23
2022-08-05T04:44:21.525Z,57.07
2022-08-05T04:46:58.581Z,57.00
2022-08-05T04:49:38.767Z,56.86
2022-08-05T04:52:17.324Z,56.81
2022-08-05T04:54:47.167Z,56.84
2022-08-05T04:57:17.853Z,56.77
2022-08-05T04:59:47.964Z,56.71
2022-08-05T05:02:41.346Z,56.64
2022-08-05T05:05:26.464Z,56.65
2022-08-05T05:07:56.589Z,56.51
2022-08-05T05:10:33.367Z,56.40
2022-08-05T05:13:04.070Z,56.23
2022-08-05T05:15:59.096Z,56.42
2022-08-05T05:18:31.123Z,56.42
2022-08-05T05:21:04.062Z,56.43
2022-08-05T05:23:39.439Z,56.37
2022-08-05T05:26:28.699Z,56.34
2022-08-05T05:29:02.272Z,55.93
2022-08-05T05:34:02.153Z,56.23
2022-08-05T05:36:31.789Z,56.34
2022-08-05T05:39:03.560Z,56.37
2022-08-05T05:41:40.390Z,56.34
2022-08-05T05:44:35.793Z,56.29
2022-08-05T05:47:04.096Z,56.12
2022-08-05T05:49:33.627Z,56.12
2022-08-05T05:52:06.057Z,55.89
2022-08-05T05:54:50.112Z,55.63
2022-08-05T05:57:21.088Z,55.57
2022-08-05T05:59:49.515Z,55.45
2022-08-05T06:02:27.946Z,55.52
2022-08-05T06:05:01.321Z,55.35
2022-08-05T06:07:41.819Z,55.26
2022-08-05T06:10:13.468Z,55.46
2022-08-05T06:12:44.047Z,55.44
2022-08-05T06:15:24.139Z,55.01
2022-08-05T06:17:54.478Z,55.11
2022-08-05T06:20:23.284Z,54.88
2022-08-05T06:22:51.626Z,54.68
2022-08-05T06:25:59.409Z,54.67
2022-08-05T06:28:12.552Z,54.62
2022-08-05T06:30:50.812Z,54.42
2022-08-05T06:33:20.316Z,54.44
2022-08-05T06:36:10.060Z,54.32
2022-08-05T06:38:38.904Z,54.29
2022-08-05T06:41:16.854Z,54.44
2022-08-05T06:43:58.405Z,54.65
2022-08-05T06:46:29.859Z,54.62
2022-08-05T06:49:01.124Z,54.54
2022-08-05T06:51:31.436Z,54.48
2022-08-05T06:54:02.060Z,54.55
2022-08-05T06:56:34.897Z,54.49
2022-08-05T06:59:03.763Z,54.42
2022-08-05T07:01:37.497Z,54.43
2022-08-05T07:04:10.040Z,54.39
2022-08-05T07:06:38.386Z,54.06
2022-08-05T07:09:07.025Z,53.88
2022-08-05T07:11:39.794Z,53.83
2022-08-05T07:14:29.269Z,53.27
2022-08-05T07:18:01.692Z,53.14
2022-08-05T07:22:42.563Z,52.56
2022-08-05T07:25:23.909Z,51.53
2022-08-05T07:28:05.939Z,51.19
2022-08-05T07:30:39.908Z,51.45
2022-08-05T07:33:15.555Z,50.40
2022-08-05T07:36:02.115Z,50.31
2022-08-05T07:38:42.870Z,50.18
2022-08-05T07:42:08.760Z,49.62
2022-08-05T07:44:14.323Z,49.71
2022-08-05T07:46:49.793Z,49.11
2022-08-05T07:49:19.420Z,47.31
2022-08-05T07:51:53.674Z,46.32
2022-08-05T07:54:31.169Z,45.16
2022-08-05T07:57:23.666Z,45.16
2022-08-05T07:59:52.532Z,44.29
2022-08-05T08:02:31.358Z,43.93
2022-08-05T08:05:15.605Z,43.84
2022-08-05T08:07:59.508Z,44.43
2022-08-05T08:10:29.009Z,44.38
2022-08-05T08:12:58.879Z,44.41
2022-08-05T08:16:33.317Z,44.99
2022-08-05T08:18:20.777Z,45.16
2022-08-05T08:21:02.802Z,44.57
2022-08-05T08:24:02.683Z,44.86
2022-08-05T08:26:27.038Z,45.33
2022-08-05T08:29:21.960Z,44.95
2022-08-05T08:31:51.064Z,44.99
2022-08-05T08:34:29.908Z,44.19
2022-08-05T08:37:04.723Z,43.87
2022-08-05T08:39:37.780Z,44.81
2022-08-05T08:42:32.561Z,44.39
2022-08-05T08:45:18.936Z,43.35
2022-08-05T08:48:11.316Z,43.84
2022-08-05T08:51:03.525Z,44.68
2022-08-05T08:53:36.983Z,44.77
2022-08-05T08:56:06.749Z,44.84
2022-08-05T08:58:43.155Z,44.45
2022-08-05T09:01:16.501Z,44.32
2022-08-05T09:03:55.596Z,43.22
2022-08-05T09:06:29.550Z,41.36
2022-08-05T09:08:59.748Z,40.81
2022-08-05T09:11:51.090Z,39.32
2022-08-05T09:14:58.932Z,38.58
2022-08-05T09:17:09.329Z,37.82
2022-08-05T09:19:55.185Z,38.74
2022-08-05T09:22:32.095Z,39.21
2022-08-05T09:25:13.862Z,40.24
2022-08-05T09:28:03.758Z,40.34
2022-08-05T09:30:35.598Z,40.15
2022-08-05T09:33:07.557Z,40.31
2022-08-05T09:35:37.629Z,39.56
2022-08-05T09:38:16.648Z,40.40
2022-08-05T09:40:53.633Z,40.39
2022-08-05T09:43:40.449Z,40.23
2022-08-05T09:46:27.673Z,40.11
2022-08-05T09:49:07.532Z,40.42
2022-08-05T09:51:49.475Z,39.72
2022-08-05T09:54:30.531Z,39.89
2022-08-05T09:57:01.451Z,40.40
2022-08-05T09:59:34.998Z,40.44
2022-08-05T10:02:06.693Z,40.92
2022-08-05T10:04:38.262Z,41.07
2022-08-05T10:07:20.213Z,40.83
2022-08-05T10:10:04.422Z,41.05
2022-08-05T10:12:50.038Z,42.18
2022-08-05T10:15:22.190Z,42.36
2022-08-05T10:18:12.377Z,42.65
2022-08-05T10:20:44.061Z,43.21
2022-08-05T10:23:22.112Z,42.55
2022-08-05T10:26:07.812Z,43.08
2022-08-05T10:28:43.887Z,43.37
2022-08-05T10:32:53.760Z,43.17
2022-08-05T10:34:03.488Z,42.13
2022-08-05T10:36:32.306Z,42.87
2022-08-05T10:40:04.337Z,42.25
2022-08-05T10:42:33.934Z,41.54
2022-08-05T10:45:21.302Z,41.49
2022-08-05T10:48:29.127Z,41.70
2022-08-05T10:50:59.652Z,41.76
2022-08-05T10:53:42.713Z,41.78
2022-08-05T10:56:25.245Z,40.68
2022-08-05T11:00:01.076Z,39.68
2022-08-05T11:02:14.649Z,38.09
2022-08-05T11:04:57.598Z,37.38
2022-08-05T11:07:32.920Z,37.00
2022-08-05T11:10:27.753Z,36.01
2022-08-05T11:13:01.283Z,36.02
2022-08-05T11:16:01.048Z,35.60
2022-08-05T11:18:30.120Z,36.26
2022-08-05T11:21:06.224Z,35.99
2022-08-05T11:24:05.470Z,35.36
2022-08-05T11:26:33.990Z,37.28
2022-08-05T11:29:12.729Z,34.13
2022-08-05T11:32:00.381Z,34.69
2022-08-05T11:34:47.447Z,32.68
2022-08-05T11:38:28.674Z,32.41
2022-08-05T11:41:03.494Z,29.64
2022-08-05T11:44:04.530Z,30.26
2022-08-05T11:46:37.582Z,28.37
2022-08-05T11:49:08.109Z,27.42
2022-08-05T11:51:44.207Z,25.86
2022-08-05T11:54:33.419Z,24.43
2022-08-05T11:57:08.196Z,25.86
2022-08-05T11:59:53.209Z,23.79
2022-08-05T12:02:31.899Z,24.04
2022-08-05T12:05:07.996Z,24.68
2022-08-05T12:08:03.361Z,23.97
2022-08-05T12:10:45.519Z,23.97
2022-08-05T12:13:28.161Z,23.47
2022-08-05T12:16:15.098Z,23.19
2022-08-05T12:18:52.280Z,24.03
2022-08-05T12:21:24.205Z,25.23
2022-08-05T12:24:04.333Z,23.88
2022-08-05T12:26:35.105Z,22.72
2022-08-05T12:29:03.856Z,23.58
2022-08-05T12:31:46.193Z,24.20
2022-08-05T12:34:23.594Z,24.01
2022-08-05T12:36:54.485Z,22.57
2022-08-05T12:39:34.558Z,23.91
2022-08-05T12:42:14.908Z,26.65
2022-08-05T12:44:45.937Z,25.68
2022-08-05T12:47:27.432Z,25.75
2022-08-05T12:50:02.037Z,25.32
2022-08-05T12:52:38.782Z,24.53
2022-08-05T12:55:23.298Z,25.01
2022-08-05T12:58:38.804Z,25.10
2022-08-05T13:02:01.452Z,25.81
2022-08-05T13:03:41.587Z,26.94
2022-08-05T13:06:16.928Z,27.94
2022-08-05T13:08:52.073Z,27.81
2022-08-05T13:11:47.073Z,27.39
2022-08-05T13:14:19.462Z,27.91
2022-08-05T13:16:56.689Z,27.52
2022-08-05T13:19:27.065Z,26.88
2022-08-05T13:22:28.249Z,26.78
2022-08-05T13:25:05.539Z,26.22
2022-08-05T13:27:38.509Z,27.53
2022-08-05T13:30:33.561Z,27.29
2022-08-05T13:33:01.155Z,27.14
2022-08-05T13:35:42.490Z,24.78
2022-08-05T13:38:20.552Z,23.47
2022-08-05T13:40:58.830Z,23.80
2022-08-05T13:43:44.467Z,25.11
2022-08-05T13:46:35.814Z,25.97
2022-08-05T13:49:09.819Z,26.01
2022-08-05T13:51:41.117Z,26.36
2022-08-05T13:54:13.229Z,26.94
2022-08-05T13:56:44.909Z,27.16
2022-08-05T13:59:21.104Z,26.55
2022-08-05T14:01:57.425Z,26.29
2022-08-05T14:04:49.738Z,27.04
2022-08-05T14:07:56.240Z,27.34
2022-08-05T14:10:12.003Z,27.39
2022-08-05T14:12:41.234Z,26.71
2022-08-05T14:16:05.954Z,27.20
2022-08-05T14:18:01.515Z,27.08
2022-08-05T14:20:30.814Z,27.47
2022-08-05T14:22:59.589Z,27.65
2022-08-05T14:25:30.263Z,29.42
2022-08-05T14:27:58.847Z,30.34
2022-08-05T14:30:28.332Z,29.56
2022-08-05T14:32:58.887Z,26.88
2022-08-05T14:35:37.201Z,26.99
2022-08-05T14:38:32.146Z,27.24
2022-08-05T14:41:07.491Z,27.71
2022-08-05T14:43:59.416Z,27.42
2022-08-05T14:46:27.979Z,28.22
2022-08-05T14:48:58.718Z,28.74
2022-08-05T14:51:30.890Z,28.84
2022-08-05T14:54:26.819Z,29.49
2022-08-05T14:56:49.430Z,28.90
2022-08-05T14:59:21.259Z,28.87
2022-08-05T15:01:50.120Z,29.17
2022-08-05T15:04:20.670Z,30.09
2022-08-05T15:06:51.371Z,30.89
2022-08-05T15:09:51.330Z,31.06
2022-08-05T15:12:11.771Z,31.91
2022-08-05T15:14:49.655Z,31.38
2022-08-05T15:17:46.954Z,31.48
2022-08-05T15:20:18.423Z,29.71
2022-08-05T15:22:54.206Z,28.13
2022-08-05T15:25:41.344Z,26.97
2022-08-05T15:28:15.579Z,27.78
2022-08-05T15:30:45.581Z,27.58
2022-08-05T15:34:04.448Z,27.93
2022-08-05T15:36:04.148Z,28.13
2022-08-05T15:38:36.653Z,27.78
2022-08-05T15:41:23.209Z,27.84
2022-08-05T15:43:55.271Z,27.94
2022-08-05T15:46:24.751Z,29.29
2022-08-05T15:48:58.568Z,29.55
2022-08-05T15:52:10.070Z,29.67
2022-08-05T15:54:18.756Z,29.51
2022-08-05T15:56:47.528Z,29.74
2022-08-05T15:59:19.890Z,30.31
2022-08-05T16:01:52.363Z,30.22
2022-08-05T16:04:25.151Z,30.78
2022-08-05T16:06:55.777Z,30.25
2022-08-05T16:09:25.004Z,30.88
2022-08-05T16:11:53.843Z,30.99
2022-08-05T16:14:24.110Z,30.67
2022-08-05T16:16:52.502Z,30.34
2022-08-05T16:20:02.793Z,30.45
2022-08-05T16:22:10.517Z,30.22
2022-08-05T16:24:40.962Z,30.02
2022-08-05T16:27:15.982Z,31.52
2022-08-05T16:29:50.804Z,30.97
2022-08-05T16:32:28.296Z,30.61
2022-08-05T16:34:58.728Z,29.74
2022-08-05T16:38:15.462Z,30.13
2022-08-05T16:40:25.145Z,31.12
2022-08-05T16:42:58.411Z,30.91
2022-08-05T16:46:04.728Z,31.07
2022-08-05T16:48:25.344Z,30.32
2022-08-05T16:50:54.602Z,29.56
2022-08-05T16:54:02.082Z,30.12
2022-08-05T16:56:12.583Z,29.74
2022-08-05T16:58:41.998Z,30.05
2022-08-05T17:01:12.107Z,29.96
2022-08-05T17:03:40.593Z,30.09
2022-08-05T17:06:09.358Z,30.44
2022-08-05T17:08:53.095Z,30.60
2022-08-05T17:11:23.404Z,31.22
2022-08-05T17:14:00.363Z,30.87
2022-08-05T17:16:37.220Z,31.43
2022-08-05T17:19:07.445Z,31.64
2022-08-05T17:21:39.658Z,31.18
2022-08-05T17:24:20.496Z,30.90
2022-08-05T17:26:59.251Z,30.99
2022-08-05T17:29:39.899Z,30.96
2022-08-05T17:32:17.233Z,30.82
2022-08-05T17:42:16.737Z,31.64
2022-08-05T17:44:11.201Z,32.28
2022-08-05T17:46:41.395Z,32.80
2022-08-05T17:49:13.086Z,32.52
2022-08-05T17:51:50.010Z,32.89
2022-08-05T17:57:23.368Z,33.67
2022-08-05T18:00:04.936Z,33.83
2022-08-05T18:02:49.197Z,34.03
2022-08-05T18:05:22.206Z,34.66
2022-08-05T18:08:21.549Z,34.73
2022-08-05T18:10:51.626Z,34.76
2022-08-05T18:13:20.980Z,34.93
2022-08-05T18:15:57.350Z,34.65
2022-08-05T18:22:09.221Z,34.31
2022-08-05T18:28:10.739Z,35.27
2022-08-05T18:30:40.204Z,35.89
2022-08-05T18:33:13.690Z,36.15
2022-08-05T18:36:01.269Z,36.55
2022-08-05T18:38:32.351Z,37.21
2022-08-05T18:41:55.680Z,37.42
2022-08-05T18:43:49.290Z,37.63
2022-08-05T18:46:19.854Z,37.81
2022-08-05T18:48:51.859Z,38.20
2022-08-05T18:52:06.034Z,38.53
2022-08-05T18:54:28.545Z,38.74
2022-08-05T18:57:00.959Z,39.16
2022-08-05T18:59:43.267Z,39.39
2022-08-05T19:02:36.588Z,39.58
2022-08-05T19:06:05.343Z,39.70
2022-08-05T19:07:58.245Z,39.68
2022-08-05T19:10:28.723Z,40.05
2022-08-05T19:12:57.010Z,40.09
2022-08-05T19:15:59.761Z,40.20
2022-08-05T19:18:21.871Z,40.46
2022-08-05T19:20:52.512Z,40.55
2022-08-05T19:24:03.940Z,40.65
2022-08-05T19:26:11.932Z,40.65
2022-08-05T19:28:42.088Z,40.71
2022-08-05T19:31:13.685Z,40.81
2022-08-05T19:33:48.238Z,41.04
2022-08-05T19:36:25.546Z,41.54
2022-08-05T19:39:01.945Z,42.03
2022-08-05T19:41:58.556Z,42.10
2022-08-05T19:44:23.462Z,42.65
2022-08-05T19:46:57.919Z,43.04
2022-08-05T19:49:26.096Z,43.09
2022-08-05T19:52:08.778Z,43.09
2022-08-05T19:54:53.123Z,44.31
2022-08-05T19:57:48.930Z,44.86
2022-08-05T20:00:11.943Z,45.91
2022-08-05T20:02:40.396Z,46.28
2022-08-05T20:05:16.627Z,47.15
2022-08-05T20:07:57.713Z,47.53
2022-08-05T20:10:27.671Z,47.71
2022-08-05T20:12:58.453Z,47.94
2022-08-05T20:15:48.211Z,47.79
2022-08-05T20:18:33.858Z,48.06
2022-08-05T20:21:04.492Z,48.14
2022-08-05T20:23:39.181Z,48.24
2022-08-05T20:26:17.968Z,48.31
2022-08-05T20:28:51.414Z,48.70
2022-08-05T20:31:36.818Z,49.19
2022-08-05T20:34:11.736Z,49.19
2022-08-05T20:36:43.006Z,49.22
2022-08-05T20:39:13.259Z,49.44
2022-08-05T20:41:44.526Z,49.61
2022-08-05T20:44:17.050Z,49.51
2022-08-05T20:46:47.803Z,49.52
2022-08-05T20:49:24.196Z,49.66
2022-08-05T20:51:54.397Z,49.89
2022-08-05T20:54:25.582Z,50.02
2022-08-05T20:57:14.451Z,50.29
2022-08-05T21:00:11.203Z,50.34
2022-08-05T21:02:39.255Z,50.30
2022-08-05T21:05:09.261Z,50.42
2022-08-05T21:07:50.673Z,50.35
2022-08-05T21:10:20.883Z,50.54
2022-08-05T21:12:57.585Z,50.59
2022-08-05T21:15:33.731Z,50.56
2022-08-05T21:18:02.232Z,50.66
2022-08-05T21:20:32.627Z,50.93
2022-08-05T21:23:03.136Z,51.14
2022-08-05T21:25:33.790Z,51.24
2022-08-05T21:28:03.646Z,51.30
2022-08-05T21:30:33.118Z,51.64
2022-08-05T21:33:01.862Z,51.64
2022-08-05T21:35:55.540Z,51.80
2022-08-05T21:38:19.186Z,51.50
2022-08-05T21:40:47.321Z,51.50
2022-08-05T21:43:17.740Z,51.48
2022-08-05T21:45:57.653Z,51.56
2022-08-05T21:48:28.770Z,51.68
2022-08-05T21:50:57.222Z,51.77
2022-08-05T21:53:27.381Z,51.71
2022-08-05T21:56:05.277Z,51.80
2022-08-05T21:58:57.293Z,51.75
2022-08-05T22:01:27.958Z,51.74
2022-08-05T22:04:03.725Z,51.79
2022-08-05T22:06:35.373Z,51.84
2022-08-05T22:09:13.762Z,51.82
2022-08-05T22:11:46.845Z,51.68
2022-08-05T22:14:34.613Z,51.79
2022-08-05T22:17:07.418Z,51.64
2022-08-05T22:20:03.397Z,51.70
2022-08-05T22:22:27.933Z,51.74
2022-08-05T22:25:31.105Z,51.73
2022-08-05T22:28:12.057Z,51.84
2022-08-05T22:30:44.042Z,52.10
2022-08-05T22:33:55.907Z,51.98
2022-08-05T22:36:15.636Z,51.95
2022-08-05T22:38:48.703Z,51.96
2022-08-05T22:42:04.422Z,52.01
2022-08-05T22:44:06.707Z,51.96
2022-08-05T22:46:39.562Z,52.05
2022-08-05T22:49:23.440Z,51.94
2022-08-05T22:52:05.558Z,52.00
2022-08-05T22:54:37.444Z,52.21
2022-08-05T22:57:07.490Z,52.14
2022-08-05T22:59:43.941Z,52.14
2022-08-05T23:02:17.350Z,52.27
2022-08-05T23:04:51.405Z,52.31
2022-08-05T23:07:21.826Z,52.43
2022-08-05T23:09:57.759Z,52.55
2022-08-05T23:12:32.974Z,52.54
2022-08-05T23:15:03.183Z,52.58
2022-08-05T23:17:34.723Z,52.49
2022-08-05T23:20:17.883Z,52.47
2022-08-05T23:22:47.536Z,52.69
2022-08-05T23:25:52.670Z,52.83
2022-08-05T23:28:07.161Z,52.75
2022-08-05T23:30:39.614Z,52.75
2022-08-05T23:33:16.360Z,52.63
2022-08-05T23:35:51.848Z,52.55
2022-08-05T23:38:26.768Z,52.55
2022-08-05T23:40:55.324Z,52.68
2022-08-05T23:44:03.665Z,52.53
2022-08-05T23:46:21.353Z,52.60
2022-08-05T23:48:59.846Z,52.48
2022-08-05T23:51:52.390Z,52.64
2022-08-05T23:54:25.949Z,52.85
2022-08-05T23:57:03.293Z,52.90
